sensor_id;sensor_type;location;lat;lon;timestamp;pressure;altitude;pressure_sealevel;temperature;humidity
6132;BME280;3097;42.692;23.278;2023-04-24T00:02:16;94768.28;;;12.63;72.48
6132;BME280;3097;42.692;23.278;2023-04-24T00:04:41;94758.25;;;12.50;74.48
6132;BME280;3097;42.692;23.278;2023-04-24T00:07:10;94755.75;;;12.38;75.88
6132;BME280;3097;42.692;23.278;2023-04-24T00:09:36;94716.81;;;12.12;75.95
6132;BME280;3097;42.692;23.278;2023-04-24T00:12:01;94755.81;;;12.27;77.26
6132;BME280;3097;42.692;23.278;2023-04-24T00:14:30;94761.16;;;12.37;76.76
6132;BME280;3097;42.692;23.278;2023-04-24T00:16:55;94758.03;;;12.35;77.17
6132;BME280;3097;42.692;23.278;2023-04-24T00:19:21;94759.28;;;12.16;78.16
6132;BME280;3097;42.692;23.278;2023-04-24T00:21:46;94752.50;;;11.98;79.29
6132;BME280;3097;42.692;23.278;2023-04-24T00:24:15;94743.59;;;12.06;78.83
6132;BME280;3097;42.692;23.278;2023-04-24T00:26:41;94761.75;;;12.11;79.62
6132;BME280;3097;42.692;23.278;2023-04-24T00:29:07;94760.47;;;11.96;80.34
6132;BME280;3097;42.692;23.278;2023-04-24T00:31:32;94749.34;;;11.96;78.70
6132;BME280;3097;42.692;23.278;2023-04-24T00:34:00;94755.16;;;11.86;78.86
6132;BME280;3097;42.692;23.278;2023-04-24T00:36:25;94744.25;;;11.84;78.59
6132;BME280;3097;42.692;23.278;2023-04-24T00:38:52;94702.38;;;11.54;78.22
6132;BME280;3097;42.692;23.278;2023-04-24T00:41:17;94740.66;;;11.85;78.00
6132;BME280;3097;42.692;23.278;2023-04-24T00:43:43;94744.19;;;11.96;78.29
6132;BME280;3097;42.692;23.278;2023-04-24T00:46:08;94745.31;;;12.00;78.01
6132;BME280;3097;42.692;23.278;2023-04-24T00:48:34;94744.38;;;12.06;77.59
6132;BME280;3097;42.692;23.278;2023-04-24T00:50:59;94747.97;;;12.05;77.31
6132;BME280;3097;42.692;23.278;2023-04-24T00:53:25;94743.72;;;11.99;76.90
6132;BME280;3097;42.692;23.278;2023-04-24T00:55:50;94754.25;;;12.09;76.73
6132;BME280;3097;42.692;23.278;2023-04-24T00:58:16;94748.75;;;12.06;76.19
6132;BME280;3097;42.692;23.278;2023-04-24T01:00:42;94747.75;;;12.07;75.49
6132;BME280;3097;42.692;23.278;2023-04-24T01:03:08;94709.56;;;11.80;75.36
6132;BME280;3097;42.692;23.278;2023-04-24T01:05:33;94694.00;;;11.75;76.21
6132;BME280;3097;42.692;23.278;2023-04-24T01:07:59;94732.88;;;12.14;77.90
6132;BME280;3097;42.692;23.278;2023-04-24T01:10:27;94727.16;;;11.95;76.63
6132;BME280;3097;42.692;23.278;2023-04-24T01:12:54;94687.59;;;11.66;76.83
6132;BME280;3097;42.692;23.278;2023-04-24T01:15:20;94718.84;;;11.93;78.35
6132;BME280;3097;42.692;23.278;2023-04-24T01:17:46;94720.25;;;12.00;79.17
6132;BME280;3097;42.692;23.278;2023-04-24T01:20:12;94722.03;;;11.83;82.13
6132;BME280;3097;42.692;23.278;2023-04-24T01:22:38;94708.38;;;11.71;83.27
6132;BME280;3097;42.692;23.278;2023-04-24T01:25:03;94714.84;;;11.85;83.58
6132;BME280;3097;42.692;23.278;2023-04-24T01:27:30;94713.13;;;11.91;81.51
6132;BME280;3097;42.692;23.278;2023-04-24T01:29:55;94717.41;;;11.85;80.63
6132;BME280;3097;42.692;23.278;2023-04-24T01:32:21;94658.31;;;11.44;82.69
6132;BME280;3097;42.692;23.278;2023-04-24T01:34:46;94720.16;;;11.79;83.07
6132;BME280;3097;42.692;23.278;2023-04-24T01:37:12;94708.91;;;11.73;83.09
6132;BME280;3097;42.692;23.278;2023-04-24T01:39:37;94710.03;;;11.77;82.84
6132;BME280;3097;42.692;23.278;2023-04-24T01:42:04;94706.13;;;11.75;82.37
6132;BME280;3097;42.692;23.278;2023-04-24T01:44:30;94706.91;;;11.75;81.71
6132;BME280;3097;42.692;23.278;2023-04-24T01:46:56;94711.78;;;11.60;82.41
6132;BME280;3097;42.692;23.278;2023-04-24T01:49:21;94710.97;;;11.59;81.95
6132;BME280;3097;42.692;23.278;2023-04-24T01:51:47;94714.50;;;11.53;80.29
6132;BME280;3097;42.692;23.278;2023-04-24T01:54:12;94698.50;;;11.40;77.57
6132;BME280;3097;42.692;23.278;2023-04-24T01:56:41;94705.25;;;11.41;76.40
6132;BME280;3097;42.692;23.278;2023-04-24T01:59:09;94701.53;;;11.37;76.77
6132;BME280;3097;42.692;23.278;2023-04-24T02:01:35;94676.84;;;11.12;77.18
6132;BME280;3097;42.692;23.278;2023-04-24T02:04:01;94707.63;;;11.31;78.07
6132;BME280;3097;42.692;23.278;2023-04-24T02:06:27;94706.38;;;11.33;74.96
6132;BME280;3097;42.692;23.278;2023-04-24T02:08:52;94717.66;;;11.44;76.96
6132;BME280;3097;42.692;23.278;2023-04-24T02:11:18;94708.63;;;11.30;77.98
6132;BME280;3097;42.692;23.278;2023-04-24T02:13:44;94711.31;;;11.35;78.80
6132;BME280;3097;42.692;23.278;2023-04-24T02:16:09;94712.78;;;11.31;79.03
6132;BME280;3097;42.692;23.278;2023-04-24T02:18:35;94710.00;;;11.20;79.65
6132;BME280;3097;42.692;23.278;2023-04-24T02:21:00;94706.88;;;11.18;80.15
6132;BME280;3097;42.692;23.278;2023-04-24T02:23:25;94703.00;;;11.04;80.70
6132;BME280;3097;42.692;23.278;2023-04-24T02:25:52;94649.34;;;10.55;81.33
6132;BME280;3097;42.692;23.278;2023-04-24T02:28:18;94710.50;;;10.94;81.08
6132;BME280;3097;42.692;23.278;2023-04-24T02:30:44;94697.66;;;10.82;81.37
6132;BME280;3097;42.692;23.278;2023-04-24T02:33:11;94555.06;;;9.95;81.51
6132;BME280;3097;42.692;23.278;2023-04-24T02:35:37;94683.06;;;10.76;81.58
6132;BME280;3097;42.692;23.278;2023-04-24T02:38:02;94676.31;;;10.87;81.71
6132;BME280;3097;42.692;23.278;2023-04-24T02:40:28;94675.09;;;10.90;81.21
6132;BME280;3097;42.692;23.278;2023-04-24T02:42:54;94665.81;;;10.77;81.12
6132;BME280;3097;42.692;23.278;2023-04-24T02:45:19;94676.72;;;10.67;81.78
6132;BME280;3097;42.692;23.278;2023-04-24T02:47:45;94667.06;;;10.63;81.55
6132;BME280;3097;42.692;23.278;2023-04-24T02:50:10;94676.81;;;10.61;82.19
6132;BME280;3097;42.692;23.278;2023-04-24T02:52:36;94677.13;;;10.53;83.51
6132;BME280;3097;42.692;23.278;2023-04-24T02:55:01;94674.69;;;10.58;83.63
6132;BME280;3097;42.692;23.278;2023-04-24T02:57:27;94682.41;;;10.58;83.63
6132;BME280;3097;42.692;23.278;2023-04-24T02:59:52;94680.75;;;10.52;83.93
6132;BME280;3097;42.692;23.278;2023-04-24T03:02:18;94683.44;;;10.57;83.88
6132;BME280;3097;42.692;23.278;2023-04-24T03:04:43;94676.69;;;10.56;83.52
6132;BME280;3097;42.692;23.278;2023-04-24T03:07:08;94686.91;;;10.51;82.56
6132;BME280;3097;42.692;23.278;2023-04-24T03:09:34;94686.22;;;10.32;82.34
6132;BME280;3097;42.692;23.278;2023-04-24T03:11:59;94683.22;;;10.35;81.96
6132;BME280;3097;42.692;23.278;2023-04-24T03:14:25;94690.81;;;10.41;81.34
6132;BME280;3097;42.692;23.278;2023-04-24T03:16:51;94688.81;;;10.43;81.00
6132;BME280;3097;42.692;23.278;2023-04-24T03:19:16;94696.97;;;10.40;81.69
6132;BME280;3097;42.692;23.278;2023-04-24T03:21:41;94691.50;;;10.37;81.55
6132;BME280;3097;42.692;23.278;2023-04-24T03:24:08;94683.44;;;10.33;81.49
6132;BME280;3097;42.692;23.278;2023-04-24T03:26:34;94518.81;;;9.39;81.32
6132;BME280;3097;42.692;23.278;2023-04-24T03:29:00;94544.19;;;9.35;81.55
6132;BME280;3097;42.692;23.278;2023-04-24T03:31:26;94679.41;;;10.26;82.24
6132;BME280;3097;42.692;23.278;2023-04-24T03:33:51;94690.72;;;10.36;82.61
6132;BME280;3097;42.692;23.278;2023-04-24T03:36:17;94690.81;;;10.41;82.61
6132;BME280;3097;42.692;23.278;2023-04-24T03:38:44;94687.25;;;10.42;82.69
6132;BME280;3097;42.692;23.278;2023-04-24T03:41:19;94679.28;;;10.44;82.86
6132;BME280;3097;42.692;23.278;2023-04-24T03:43:44;94690.38;;;10.44;82.98
6132;BME280;3097;42.692;23.278;2023-04-24T03:46:10;94667.53;;;10.36;83.35
6132;BME280;3097;42.692;23.278;2023-04-24T03:48:35;94692.72;;;10.46;83.28
6132;BME280;3097;42.692;23.278;2023-04-24T03:51:01;94680.53;;;10.41;83.44
6132;BME280;3097;42.692;23.278;2023-04-24T03:53:26;94644.44;;;10.18;83.40
6132;BME280;3097;42.692;23.278;2023-04-24T03:55:53;94690.81;;;10.53;83.24
6132;BME280;3097;42.692;23.278;2023-04-24T03:58:18;94692.03;;;10.62;83.98
6132;BME280;3097;42.692;23.278;2023-04-24T04:00:44;94685.75;;;10.70;83.50
6132;BME280;3097;42.692;23.278;2023-04-24T04:03:14;94670.50;;;10.68;83.89
6132;BME280;3097;42.692;23.278;2023-04-24T04:05:40;94683.09;;;10.65;82.65
6132;BME280;3097;42.692;23.278;2023-04-24T04:08:06;94685.97;;;10.68;81.78
6132;BME280;3097;42.692;23.278;2023-04-24T04:10:34;94684.84;;;10.76;82.12
6132;BME280;3097;42.692;23.278;2023-04-24T04:12:59;94680.38;;;10.71;83.17
6132;BME280;3097;42.692;23.278;2023-04-24T04:15:25;94683.72;;;10.83;83.42
6132;BME280;3097;42.692;23.278;2023-04-24T04:17:50;94680.34;;;10.95;83.44
6132;BME280;3097;42.692;23.278;2023-04-24T04:20:16;94685.38;;;11.01;83.15
6132;BME280;3097;42.692;23.278;2023-04-24T04:22:41;94687.81;;;11.19;82.87
6132;BME280;3097;42.692;23.278;2023-04-24T04:25:07;94685.44;;;11.18;82.71
6132;BME280;3097;42.692;23.278;2023-04-24T04:27:33;94690.91;;;11.21;82.96
6132;BME280;3097;42.692;23.278;2023-04-24T04:30:00;94692.84;;;11.26;82.72
6132;BME280;3097;42.692;23.278;2023-04-24T04:32:34;94690.56;;;11.30;82.44
6132;BME280;3097;42.692;23.278;2023-04-24T04:35:00;94655.22;;;11.02;82.63
6132;BME280;3097;42.692;23.278;2023-04-24T04:37:32;94706.88;;;11.47;81.92
6132;BME280;3097;42.692;23.278;2023-04-24T04:39:59;94706.66;;;11.48;80.66
6132;BME280;3097;42.692;23.278;2023-04-24T04:42:25;94708.13;;;11.44;79.10
6132;BME280;3097;42.692;23.278;2023-04-24T04:44:52;94717.22;;;11.47;80.12
6132;BME280;3097;42.692;23.278;2023-04-24T04:47:20;94715.19;;;11.49;80.22
6132;BME280;3097;42.692;23.278;2023-04-24T04:49:49;94696.28;;;11.60;79.95
6132;BME280;3097;42.692;23.278;2023-04-24T04:52:16;94724.75;;;11.77;79.90
6132;BME280;3097;42.692;23.278;2023-04-24T04:54:42;94721.00;;;11.84;79.81
6132;BME280;3097;42.692;23.278;2023-04-24T04:57:07;94726.44;;;11.99;79.60
6132;BME280;3097;42.692;23.278;2023-04-24T04:59:33;94727.63;;;12.09;79.72
6132;BME280;3097;42.692;23.278;2023-04-24T05:01:58;94735.16;;;12.27;79.42
6132;BME280;3097;42.692;23.278;2023-04-24T05:04:24;94727.72;;;12.47;78.36
6132;BME280;3097;42.692;23.278;2023-04-24T05:06:49;94713.84;;;12.53;78.10
6132;BME280;3097;42.692;23.278;2023-04-24T05:09:16;94722.78;;;12.62;76.44
6132;BME280;3097;42.692;23.278;2023-04-24T05:11:41;94723.69;;;12.56;73.99
6132;BME280;3097;42.692;23.278;2023-04-24T05:14:07;94708.06;;;12.46;74.86
6132;BME280;3097;42.692;23.278;2023-04-24T05:16:32;94680.97;;;12.32;73.94
6132;BME280;3097;42.692;23.278;2023-04-24T05:18:58;94724.09;;;12.65;73.66
6132;BME280;3097;42.692;23.278;2023-04-24T05:21:25;94727.00;;;12.68;72.99
6132;BME280;3097;42.692;23.278;2023-04-24T05:23:50;94728.16;;;12.77;71.42
6132;BME280;3097;42.692;23.278;2023-04-24T05:26:15;94728.69;;;12.79;70.29
6132;BME280;3097;42.692;23.278;2023-04-24T05:28:41;94718.88;;;12.82;70.39
6132;BME280;3097;42.692;23.278;2023-04-24T05:31:06;94706.88;;;12.92;70.65
6132;BME280;3097;42.692;23.278;2023-04-24T05:33:32;94682.41;;;13.00;69.52
6132;BME280;3097;42.692;23.278;2023-04-24T05:35:57;94728.88;;;13.33;68.33
6132;BME280;3097;42.692;23.278;2023-04-24T05:38:23;94724.34;;;13.67;66.99
6132;BME280;3097;42.692;23.278;2023-04-24T05:40:48;94730.78;;;14.18;64.35
6132;BME280;3097;42.692;23.278;2023-04-24T05:43:14;94734.97;;;14.24;59.88
6132;BME280;3097;42.692;23.278;2023-04-24T05:45:39;94734.09;;;14.41;59.68
6132;BME280;3097;42.692;23.278;2023-04-24T05:48:05;94730.41;;;14.68;57.79
6132;BME280;3097;42.692;23.278;2023-04-24T05:50:31;94721.28;;;14.66;57.74
6132;BME280;3097;42.692;23.278;2023-04-24T05:52:56;94722.63;;;14.73;56.13
6132;BME280;3097;42.692;23.278;2023-04-24T05:55:26;94717.34;;;15.00;55.32
6132;BME280;3097;42.692;23.278;2023-04-24T05:57:52;94719.72;;;15.79;53.42
6132;BME280;3097;42.692;23.278;2023-04-24T06:00:18;94729.69;;;16.53;52.66
6132;BME280;3097;42.692;23.278;2023-04-24T06:02:45;94724.84;;;17.31;50.37
6132;BME280;3097;42.692;23.278;2023-04-24T06:05:10;94723.97;;;18.05;47.35
6132;BME280;3097;42.692;23.278;2023-04-24T06:07:36;94725.34;;;18.71;46.69
6132;BME280;3097;42.692;23.278;2023-04-24T06:10:01;94721.84;;;19.76;45.33
6132;BME280;3097;42.692;23.278;2023-04-24T06:12:27;94710.09;;;20.62;42.51
6132;BME280;3097;42.692;23.278;2023-04-24T06:14:52;94707.09;;;21.55;39.55
6132;BME280;3097;42.692;23.278;2023-04-24T06:17:19;94698.53;;;22.66;37.92
6132;BME280;3097;42.692;23.278;2023-04-24T06:19:44;94704.28;;;22.91;36.75
6132;BME280;3097;42.692;23.278;2023-04-24T06:22:10;94707.28;;;23.54;36.07
6132;BME280;3097;42.692;23.278;2023-04-24T06:24:35;94710.44;;;23.65;36.85
6132;BME280;3097;42.692;23.278;2023-04-24T06:27:01;94708.28;;;23.28;36.00
6132;BME280;3097;42.692;23.278;2023-04-24T06:29:27;94693.94;;;23.42;36.00
6132;BME280;3097;42.692;23.278;2023-04-24T06:31:52;94711.28;;;23.43;35.52
6132;BME280;3097;42.692;23.278;2023-04-24T06:34:18;94709.13;;;23.45;35.24
6132;BME280;3097;42.692;23.278;2023-04-24T06:36:44;94705.19;;;23.91;35.72
6132;BME280;3097;42.692;23.278;2023-04-24T06:39:09;94705.22;;;24.25;35.58
6132;BME280;3097;42.692;23.278;2023-04-24T06:41:35;94704.56;;;24.63;35.96
6132;BME280;3097;42.692;23.278;2023-04-24T06:44:00;94666.78;;;24.97;35.72
6132;BME280;3097;42.692;23.278;2023-04-24T06:46:26;94692.75;;;25.62;32.07
6132;BME280;3097;42.692;23.278;2023-04-24T06:48:55;94691.69;;;25.17;31.59
6132;BME280;3097;42.692;23.278;2023-04-24T06:51:24;94701.50;;;25.96;31.73
6132;BME280;3097;42.692;23.278;2023-04-24T06:53:51;94700.72;;;25.95;30.70
6132;BME280;3097;42.692;23.278;2023-04-24T06:56:17;94694.00;;;25.86;33.35
6132;BME280;3097;42.692;23.278;2023-04-24T06:58:42;94694.34;;;26.17;30.69
6132;BME280;3097;42.692;23.278;2023-04-24T07:01:09;94698.69;;;26.54;30.93
6132;BME280;3097;42.692;23.278;2023-04-24T07:03:34;94676.59;;;26.71;30.30
6132;BME280;3097;42.692;23.278;2023-04-24T07:06:00;94690.44;;;26.23;30.17
6132;BME280;3097;42.692;23.278;2023-04-24T07:08:25;94663.63;;;25.92;32.39
6132;BME280;3097;42.692;23.278;2023-04-24T07:10:51;94681.63;;;25.77;32.95
6132;BME280;3097;42.692;23.278;2023-04-24T07:13:17;94687.59;;;26.07;34.52
6132;BME280;3097;42.692;23.278;2023-04-24T07:15:43;94681.22;;;26.08;33.04
6132;BME280;3097;42.692;23.278;2023-04-24T07:18:08;94680.41;;;26.49;32.64
6132;BME280;3097;42.692;23.278;2023-04-24T07:20:34;94667.41;;;26.44;32.99
6132;BME280;3097;42.692;23.278;2023-04-24T07:23:00;94683.22;;;26.11;31.94
6132;BME280;3097;42.692;23.278;2023-04-24T07:25:25;94676.19;;;25.95;31.53
6132;BME280;3097;42.692;23.278;2023-04-24T07:27:50;94677.59;;;25.42;31.91
6132;BME280;3097;42.692;23.278;2023-04-24T07:30:16;94666.84;;;24.71;32.39
6132;BME280;3097;42.692;23.278;2023-04-24T07:32:41;94678.41;;;24.41;33.83
6132;BME280;3097;42.692;23.278;2023-04-24T07:35:07;94668.97;;;24.22;34.49
6132;BME280;3097;42.692;23.278;2023-04-24T07:37:34;94670.16;;;23.56;34.86
6132;BME280;3097;42.692;23.278;2023-04-24T07:40:00;94670.56;;;23.41;35.87
6132;BME280;3097;42.692;23.278;2023-04-24T07:42:25;94673.91;;;23.72;36.42
6132;BME280;3097;42.692;23.278;2023-04-24T07:44:51;94671.53;;;23.53;35.13
6132;BME280;3097;42.692;23.278;2023-04-24T07:47:16;94674.47;;;23.61;35.15
6132;BME280;3097;42.692;23.278;2023-04-24T07:49:42;94666.34;;;23.23;35.03
6132;BME280;3097;42.692;23.278;2023-04-24T07:52:08;94665.13;;;22.58;35.79
6132;BME280;3097;42.692;23.278;2023-04-24T07:54:33;94663.22;;;22.50;38.01
6132;BME280;3097;42.692;23.278;2023-04-24T07:56:58;94624.13;;;22.80;38.74
6132;BME280;3097;42.692;23.278;2023-04-24T07:59:25;94659.56;;;23.30;37.52
6132;BME280;3097;42.692;23.278;2023-04-24T08:01:50;94653.63;;;23.73;36.29
6132;BME280;3097;42.692;23.278;2023-04-24T08:04:16;94652.03;;;24.06;35.32
6132;BME280;3097;42.692;23.278;2023-04-24T08:06:43;94656.84;;;24.39;34.20
6132;BME280;3097;42.692;23.278;2023-04-24T08:09:08;94653.44;;;24.47;35.14
6132;BME280;3097;42.692;23.278;2023-04-24T08:11:34;94465.38;;;23.06;34.68
6132;BME280;3097;42.692;23.278;2023-04-24T08:13:59;94633.47;;;24.03;34.54
6132;BME280;3097;42.692;23.278;2023-04-24T08:16:25;94646.63;;;23.68;34.82
6132;BME280;3097;42.692;23.278;2023-04-24T08:18:51;94638.28;;;23.58;36.26
6132;BME280;3097;42.692;23.278;2023-04-24T08:21:16;94631.13;;;23.49;35.49
6132;BME280;3097;42.692;23.278;2023-04-24T08:23:44;94639.19;;;23.62;36.45
6132;BME280;3097;42.692;23.278;2023-04-24T08:26:10;94638.59;;;23.65;35.50
6132;BME280;3097;42.692;23.278;2023-04-24T08:28:36;94639.34;;;23.57;35.59
6132;BME280;3097;42.692;23.278;2023-04-24T08:31:02;94634.09;;;23.91;37.13
6132;BME280;3097;42.692;23.278;2023-04-24T08:33:27;94635.34;;;24.28;38.13
6132;BME280;3097;42.692;23.278;2023-04-24T08:35:57;94630.22;;;23.97;34.81
6132;BME280;3097;42.692;23.278;2023-04-24T08:38:23;94628.22;;;23.51;36.36
6132;BME280;3097;42.692;23.278;2023-04-24T08:40:48;94620.97;;;23.00;37.02
6132;BME280;3097;42.692;23.278;2023-04-24T08:43:15;94619.97;;;22.56;37.24
6132;BME280;3097;42.692;23.278;2023-04-24T08:45:41;94616.09;;;22.23;37.96
6132;BME280;3097;42.692;23.278;2023-04-24T08:48:07;94608.09;;;22.28;38.68
6132;BME280;3097;42.692;23.278;2023-04-24T08:50:33;94611.50;;;22.28;40.38
6132;BME280;3097;42.692;23.278;2023-04-24T08:53:00;94590.88;;;22.44;38.67
6132;BME280;3097;42.692;23.278;2023-04-24T08:55:26;94606.03;;;22.47;38.57
6132;BME280;3097;42.692;23.278;2023-04-24T08:57:53;94593.69;;;22.56;40.96
6132;BME280;3097;42.692;23.278;2023-04-24T09:00:20;94596.44;;;22.73;39.93
6132;BME280;3097;42.692;23.278;2023-04-24T09:02:49;94593.56;;;22.92;43.41
6132;BME280;3097;42.692;23.278;2023-04-24T09:05:16;94588.94;;;22.98;37.91
6132;BME280;3097;42.692;23.278;2023-04-24T09:07:45;94578.13;;;22.99;40.01
6132;BME280;3097;42.692;23.278;2023-04-24T09:10:12;94569.50;;;22.68;37.42
6132;BME280;3097;42.692;23.278;2023-04-24T09:12:37;94571.03;;;22.29;38.02
6132;BME280;3097;42.692;23.278;2023-04-24T09:15:03;94576.25;;;21.98;39.42
6132;BME280;3097;42.692;23.278;2023-04-24T09:17:30;94572.59;;;21.86;39.00
6132;BME280;3097;42.692;23.278;2023-04-24T09:19:56;94569.28;;;21.80;39.45
6132;BME280;3097;42.692;23.278;2023-04-24T09:22:21;94565.16;;;21.79;39.95
6132;BME280;3097;42.692;23.278;2023-04-24T09:24:47;94542.97;;;21.63;41.11
6132;BME280;3097;42.692;23.278;2023-04-24T09:27:13;94562.75;;;21.69;39.47
6132;BME280;3097;42.692;23.278;2023-04-24T09:29:53;94555.81;;;21.73;40.64
6132;BME280;3097;42.692;23.278;2023-04-24T09:32:20;94555.81;;;21.95;39.97
6132;BME280;3097;42.692;23.278;2023-04-24T09:34:47;94548.97;;;22.08;40.29
6132;BME280;3097;42.692;23.278;2023-04-24T09:37:27;94550.47;;;22.00;40.92
6132;BME280;3097;42.692;23.278;2023-04-24T09:40:18;94556.22;;;22.03;41.12
6132;BME280;3097;42.692;23.278;2023-04-24T09:42:52;94560.25;;;21.86;39.35
6132;BME280;3097;42.692;23.278;2023-04-24T09:45:18;94554.78;;;21.96;39.06
6132;BME280;3097;42.692;23.278;2023-04-24T09:47:43;94549.22;;;21.98;40.62
6132;BME280;3097;42.692;23.278;2023-04-24T09:50:17;94539.78;;;21.97;38.58
6132;BME280;3097;42.692;23.278;2023-04-24T09:52:44;94545.22;;;21.56;39.02
6132;BME280;3097;42.692;23.278;2023-04-24T09:55:18;94522.81;;;21.00;40.81
6132;BME280;3097;42.692;23.278;2023-04-24T09:57:51;94538.16;;;20.93;40.76
6132;BME280;3097;42.692;23.278;2023-04-24T10:00:25;94528.81;;;20.51;42.02
6132;BME280;3097;42.692;23.278;2023-04-24T10:03:02;94534.44;;;20.44;42.06
6132;BME280;3097;42.692;23.278;2023-04-24T10:05:37;94527.72;;;20.38;41.68
6132;BME280;3097;42.692;23.278;2023-04-24T10:08:06;94481.53;;;20.15;42.34
6132;BME280;3097;42.692;23.278;2023-04-24T10:10:33;94520.03;;;20.15;42.20
6132;BME280;3097;42.692;23.278;2023-04-24T10:13:00;94510.63;;;20.27;42.08
6132;BME280;3097;42.692;23.278;2023-04-24T10:15:26;94503.75;;;20.18;42.08
6132;BME280;3097;42.692;23.278;2023-04-24T10:17:52;94505.56;;;20.03;41.52
6132;BME280;3097;42.692;23.278;2023-04-24T10:20:23;94500.72;;;20.24;41.80
6132;BME280;3097;42.692;23.278;2023-04-24T10:22:49;94499.69;;;20.53;41.68
6132;BME280;3097;42.692;23.278;2023-04-24T10:25:23;94493.00;;;20.60;42.16
6132;BME280;3097;42.692;23.278;2023-04-24T10:27:50;94487.47;;;20.48;40.77
6132;BME280;3097;42.692;23.278;2023-04-24T10:30:17;94483.13;;;20.43;41.33
6132;BME280;3097;42.692;23.278;2023-04-24T10:32:43;94486.22;;;20.59;41.11
6132;BME280;3097;42.692;23.278;2023-04-24T10:35:10;94487.59;;;20.43;40.71
6132;BME280;3097;42.692;23.278;2023-04-24T10:37:40;94454.28;;;20.16;41.43
6132;BME280;3097;42.692;23.278;2023-04-24T10:40:07;94480.41;;;20.48;41.57
6132;BME280;3097;42.692;23.278;2023-04-24T10:42:34;94466.66;;;20.43;42.48
6132;BME280;3097;42.692;23.278;2023-04-24T10:45:05;94437.94;;;20.38;41.13
6132;BME280;3097;42.692;23.278;2023-04-24T10:47:40;94443.38;;;20.41;41.72
6132;BME280;3097;42.692;23.278;2023-04-24T10:50:12;94454.41;;;20.66;41.73
6132;BME280;3097;42.692;23.278;2023-04-24T10:52:47;94446.91;;;20.73;42.96
6132;BME280;3097;42.692;23.278;2023-04-24T10:55:14;94474.78;;;20.91;41.10
6132;BME280;3097;42.692;23.278;2023-04-24T10:58:01;94476.78;;;20.72;41.20
6132;BME280;3097;42.692;23.278;2023-04-24T11:00:26;94447.63;;;20.51;41.44
6132;BME280;3097;42.692;23.278;2023-04-24T11:02:53;94471.66;;;20.67;42.55
6132;BME280;3097;42.692;23.278;2023-04-24T11:05:20;94463.31;;;20.65;40.70
6132;BME280;3097;42.692;23.278;2023-04-24T11:10:46;94468.75;;;20.55;41.17
6132;BME280;3097;42.692;23.278;2023-04-24T11:13:22;94479.06;;;20.51;41.75
6132;BME280;3097;42.692;23.278;2023-04-24T11:16:14;94477.97;;;20.38;41.50
6132;BME280;3097;42.692;23.278;2023-04-24T11:18:42;94512.63;;;20.35;44.04
6132;BME280;3097;42.692;23.278;2023-04-24T11:21:17;94543.06;;;19.99;55.64
6132;BME280;3097;42.692;23.278;2023-04-24T11:23:43;94532.41;;;19.44;57.28
6132;BME280;3097;42.692;23.278;2023-04-24T11:26:19;94530.63;;;18.83;63.53
6132;BME280;3097;42.692;23.278;2023-04-24T11:28:50;94520.75;;;18.80;65.46
6132;BME280;3097;42.692;23.278;2023-04-24T11:31:38;94509.38;;;18.90;65.90
6132;BME280;3097;42.692;23.278;2023-04-24T11:34:12;94498.22;;;19.03;68.48
6132;BME280;3097;42.692;23.278;2023-04-24T11:36:40;94492.50;;;19.20;65.21
6132;BME280;3097;42.692;23.278;2023-04-24T11:39:07;94469.03;;;19.01;60.56
6132;BME280;3097;42.692;23.278;2023-04-24T11:41:33;94489.63;;;19.21;59.69
6132;BME280;3097;42.692;23.278;2023-04-24T11:43:59;94473.25;;;19.16;56.47
6132;BME280;3097;42.692;23.278;2023-04-24T11:46:29;94487.56;;;19.37;53.55
6132;BME280;3097;42.692;23.278;2023-04-24T11:48:58;94483.38;;;19.36;53.87
6132;BME280;3097;42.692;23.278;2023-04-24T11:51:28;94434.13;;;19.11;52.98
6132;BME280;3097;42.692;23.278;2023-04-24T11:53:55;94478.84;;;19.42;53.63
6132;BME280;3097;42.692;23.278;2023-04-24T11:56:24;94423.13;;;19.27;56.17
6132;BME280;3097;42.692;23.278;2023-04-24T11:58:53;94444.91;;;19.55;55.26
6132;BME280;3097;42.692;23.278;2023-04-24T12:01:20;94459.91;;;19.82;56.33
6132;BME280;3097;42.692;23.278;2023-04-24T12:03:59;94440.72;;;19.87;56.41
6132;BME280;3097;42.692;23.278;2023-04-24T12:06:24;94451.22;;;20.14;56.09
6132;BME280;3097;42.692;23.278;2023-04-24T12:08:53;94451.50;;;20.26;53.61
6132;BME280;3097;42.692;23.278;2023-04-24T12:11:20;94456.53;;;20.23;49.73
6132;BME280;3097;42.692;23.278;2023-04-24T12:13:45;94448.78;;;20.18;50.02
6132;BME280;3097;42.692;23.278;2023-04-24T12:16:11;94449.16;;;20.25;50.21
6132;BME280;3097;42.692;23.278;2023-04-24T12:18:46;94445.66;;;20.16;50.62
6132;BME280;3097;42.692;23.278;2023-04-24T12:21:29;94445.97;;;20.14;52.00
6132;BME280;3097;42.692;23.278;2023-04-24T12:23:57;94440.63;;;20.19;51.46
6132;BME280;3097;42.692;23.278;2023-04-24T12:26:23;94429.00;;;20.25;49.76
6132;BME280;3097;42.692;23.278;2023-04-24T12:28:49;94427.53;;;20.33;48.87
6132;BME280;3097;42.692;23.278;2023-04-24T12:31:20;94412.91;;;20.45;48.46
6132;BME280;3097;42.692;23.278;2023-04-24T12:33:46;94404.75;;;20.47;46.75
6132;BME280;3097;42.692;23.278;2023-04-24T12:36:11;94389.19;;;20.64;46.20
6132;BME280;3097;42.692;23.278;2023-04-24T12:38:37;94347.44;;;20.32;45.88
6132;BME280;3097;42.692;23.278;2023-04-24T12:41:08;94347.84;;;20.39;45.33
6132;BME280;3097;42.692;23.278;2023-04-24T12:43:34;94381.78;;;20.80;45.16
6132;BME280;3097;42.692;23.278;2023-04-24T12:46:00;94381.78;;;20.80;45.15
6132;BME280;3097;42.692;23.278;2023-04-24T12:48:26;94379.88;;;20.94;46.11
6132;BME280;3097;42.692;23.278;2023-04-24T12:50:52;94372.72;;;21.08;47.80
6132;BME280;3097;42.692;23.278;2023-04-24T12:53:17;94354.56;;;21.12;44.91
6132;BME280;3097;42.692;23.278;2023-04-24T12:55:43;94363.09;;;21.17;43.46
6132;BME280;3097;42.692;23.278;2023-04-24T12:58:10;94348.00;;;21.23;45.19
6132;BME280;3097;42.692;23.278;2023-04-24T13:00:36;94351.59;;;21.27;46.02
6132;BME280;3097;42.692;23.278;2023-04-24T13:03:02;94338.00;;;21.25;46.04
6132;BME280;3097;42.692;23.278;2023-04-24T13:05:27;94341.28;;;21.31;46.68
6132;BME280;3097;42.692;23.278;2023-04-24T13:07:53;94336.66;;;21.36;45.72
6132;BME280;3097;42.692;23.278;2023-04-24T13:10:19;94293.88;;;21.18;47.15
6132;BME280;3097;42.692;23.278;2023-04-24T13:12:44;94326.88;;;21.59;47.35